Terminal Aerodrome Forecast
Issued by NWS Wilmington, OH

Current Version | Previous Version | Graphics & Text | Print | Product List | Glossary On
Versions: 1 2 3 4 5 6 7 8 9 10 11 12 13 14 15 16 17 18 19 20 21
747
FTUS41 KILN 162326
TAFCVG
TAF
KCVG 162326Z 1700/1806 00000KT P6SM SKC
      TEMPO 1709/1712 4SM BR
     FM171300 18004KT P6SM SCT050
     FM180000 VRB03KT P6SM SCT080=

USA.gov is the U.S. government's official web portal to all federal, state and local government web resources and services.